createdAt,value
2022-12-01T00:01:06.589Z,16.58
2022-12-01T00:03:33.778Z,16.05
2022-12-01T00:06:03.495Z,16.00
2022-12-01T00:08:30.583Z,16.58
2022-12-01T00:11:04.727Z,17.45
2022-12-01T00:13:32.021Z,16.85
2022-12-01T00:15:58.755Z,14.23
2022-12-01T00:18:25.503Z,16.40
2022-12-01T00:20:56.276Z,16.33
2022-12-01T00:23:23.557Z,18.58
2022-12-01T00:25:50.242Z,16.48
2022-12-01T00:28:17.114Z,15.38
2022-12-01T00:30:43.840Z,17.13
2022-12-01T00:33:10.626Z,15.32
2022-12-01T00:35:37.421Z,15.07
2022-12-01T00:38:04.117Z,16.00
2022-12-01T00:40:30.798Z,16.55
2022-12-01T00:42:57.506Z,16.35
2022-12-01T00:45:24.193Z,13.80
2022-12-01T00:47:50.894Z,16.10
2022-12-01T00:50:17.623Z,15.65
2022-12-01T00:52:44.375Z,14.25
2022-12-01T00:55:11.168Z,13.88
2022-12-01T00:57:37.890Z,14.10
2022-12-01T01:00:05.846Z,17.60
2022-12-01T01:02:32.581Z,14.40
2022-12-01T01:04:59.322Z,14.93
2022-12-01T01:07:26.104Z,14.80
2022-12-01T01:09:53.156Z,15.50
2022-12-01T01:12:22.237Z,15.95
2022-12-01T01:14:48.924Z,15.73
2022-12-01T01:17:15.735Z,14.38
2022-12-01T01:19:42.473Z,11.90
2022-12-01T01:22:09.226Z,15.40
2022-12-01T01:24:36.897Z,12.82
2022-12-01T01:27:03.975Z,13.27
2022-12-01T01:29:30.661Z,13.65
2022-12-01T01:31:57.396Z,11.15
2022-12-01T01:34:24.211Z,13.55
2022-12-01T01:36:50.948Z,16.02
2022-12-01T01:39:17.792Z,14.45
2022-12-01T01:41:44.588Z,14.45
2022-12-01T01:44:49.117Z,14.48
2022-12-01T01:47:20.379Z,11.68
2022-12-01T01:49:47.470Z,12.88
2022-12-01T01:52:14.830Z,14.75
2022-12-01T01:54:46.241Z,12.82
2022-12-01T01:57:16.771Z,12.82
2022-12-01T01:59:48.731Z,11.82
2022-12-01T02:02:15.724Z,12.77
2022-12-01T02:04:47.316Z,11.68
2022-12-01T02:07:18.059Z,12.68
2022-12-01T02:09:46.088Z,12.33
2022-12-01T02:12:15.596Z,12.90
2022-12-01T02:15:04.884Z,13.20
2022-12-01T02:17:47.793Z,15.65
2022-12-01T02:20:41.446Z,13.40
2022-12-01T02:23:38.294Z,14.45
2022-12-01T02:26:15.761Z,14.65
2022-12-01T02:29:06.611Z,14.60
2022-12-01T02:31:51.744Z,13.60
2022-12-01T02:34:39.908Z,14.68
2022-12-01T02:37:20.326Z,14.30
2022-12-01T02:39:58.509Z,13.80
2022-12-01T02:42:49.804Z,14.18
2022-12-01T02:45:37.052Z,15.63
2022-12-01T02:48:08.681Z,12.57
2022-12-01T02:50:37.863Z,12.18
2022-12-01T02:53:07.830Z,14.85
2022-12-01T02:55:34.880Z,13.27
2022-12-01T02:58:01.764Z,15.52
2022-12-01T03:00:30.720Z,12.68
2022-12-01T03:03:36.994Z,16.70
2022-12-01T03:06:20.291Z,14.35
2022-12-01T03:09:01.567Z,13.10
2022-12-01T03:12:12.592Z,14.60
2022-12-01T03:15:20.672Z,14.77
2022-12-01T03:17:54.474Z,16.00
2022-12-01T03:20:29.980Z,18.10
2022-12-01T03:23:04.471Z,17.05
2022-12-01T03:25:32.349Z,15.25
2022-12-01T03:28:20.757Z,15.77
2022-12-01T03:30:50.807Z,17.50
2022-12-01T03:33:24.891Z,15.73
2022-12-01T03:35:54.218Z,13.40
2022-12-01T03:38:26.100Z,14.55
2022-12-01T03:40:57.925Z,16.08
2022-12-01T03:46:17.665Z,16.20
2022-12-01T03:48:45.197Z,13.43
2022-12-01T03:51:38.149Z,16.10
2022-12-01T03:54:12.769Z,13.32
2022-12-01T03:56:46.270Z,12.93
2022-12-01T03:59:15.198Z,16.90
2022-12-01T04:01:42.046Z,15.40
2022-12-01T04:04:11.785Z,13.02
2022-12-01T04:06:42.218Z,12.23
2022-12-01T04:09:09.344Z,13.85
2022-12-01T04:11:54.647Z,14.02
2022-12-01T04:14:21.379Z,14.00
2022-12-01T04:16:48.691Z,15.13
2022-12-01T04:19:15.554Z,14.85
2022-12-01T04:21:42.264Z,15.95
2022-12-01T04:24:09.051Z,16.70
2022-12-01T04:26:37.389Z,18.27
2022-12-01T04:29:10.112Z,14.07
2022-12-01T04:31:36.988Z,16.30
2022-12-01T04:34:04.194Z,16.60
2022-12-01T04:36:33.283Z,17.77
2022-12-01T04:39:00.745Z,14.35
2022-12-01T04:41:27.910Z,17.00
2022-12-01T04:43:55.647Z,18.90
2022-12-01T04:46:23.060Z,15.68
2022-12-01T04:48:49.910Z,16.75
2022-12-01T04:51:16.870Z,19.27
2022-12-01T04:53:43.587Z,22.00
2022-12-01T04:56:10.485Z,17.75
2022-12-01T04:58:40.250Z,21.00
2022-12-01T05:01:10.128Z,20.58
2022-12-01T05:03:41.876Z,24.80
2022-12-01T05:08:42.759Z,24.20
2022-12-01T05:11:12.079Z,21.98
2022-12-01T05:13:40.299Z,24.55
2022-12-01T05:16:09.531Z,22.75
2022-12-01T05:18:36.694Z,23.05
2022-12-01T05:21:05.327Z,21.80
2022-12-01T05:23:34.813Z,27.77
2022-12-01T05:26:02.702Z,24.75
2022-12-01T05:28:29.810Z,24.48
2022-12-01T05:30:56.772Z,24.83
2022-12-01T05:33:25.698Z,25.60
2022-12-01T05:35:53.098Z,24.50
2022-12-01T05:38:20.528Z,23.25
2022-12-01T05:40:55.295Z,23.35
2022-12-01T05:43:28.627Z,23.50
2022-12-01T05:45:57.311Z,19.25
2022-12-01T05:48:24.442Z,21.27
2022-12-01T05:50:51.214Z,23.17
2022-12-01T05:53:18.599Z,24.75
2022-12-01T05:55:45.742Z,21.58
2022-12-01T05:58:12.556Z,23.75
2022-12-01T06:00:45.275Z,23.02
2022-12-01T06:03:12.975Z,21.42
2022-12-01T06:05:40.116Z,19.02
2022-12-01T06:08:07.219Z,20.83
2022-12-01T06:10:34.447Z,22.80
2022-12-01T06:13:01.269Z,21.95
2022-12-01T06:15:27.995Z,21.48
2022-12-01T06:17:54.715Z,20.83
2022-12-01T06:20:21.563Z,22.38
2022-12-01T06:22:48.582Z,24.98
2022-12-01T06:25:15.392Z,22.88
2022-12-01T06:27:42.124Z,24.13
2022-12-01T06:30:09.480Z,24.45
2022-12-01T06:32:36.622Z,24.60
2022-12-01T06:35:03.448Z,24.35
2022-12-01T06:37:30.172Z,24.63
2022-12-01T06:39:56.990Z,25.75
2022-12-01T06:42:23.754Z,21.85
2022-12-01T06:44:50.524Z,20.20
2022-12-01T06:47:17.253Z,29.92
2022-12-01T06:49:44.083Z,21.92
2022-12-01T06:52:10.799Z,21.55
2022-12-01T06:54:37.633Z,23.90
2022-12-01T06:57:05.224Z,24.30
2022-12-01T06:59:32.110Z,23.58
2022-12-01T07:01:59.359Z,26.45
2022-12-01T07:04:26.039Z,72.82
2022-12-01T07:06:52.737Z,37.92
2022-12-01T07:09:19.514Z,25.17
2022-12-01T07:11:46.216Z,34.47
2022-12-01T07:14:23.982Z,35.42
2022-12-01T07:16:51.235Z,28.23
2022-12-01T07:19:18.106Z,27.35
2022-12-01T07:21:44.803Z,36.10
2022-12-01T07:24:12.573Z,29.58
2022-12-01T07:26:41.076Z,30.05
2022-12-01T07:29:09.239Z,25.65
2022-12-01T07:31:36.723Z,25.52
2022-12-01T07:34:03.989Z,28.63
2022-12-01T07:36:30.754Z,23.88
2022-12-01T07:38:57.512Z,23.95
2022-12-01T07:41:24.448Z,25.40
2022-12-01T07:43:51.189Z,26.27
2022-12-01T07:46:24.523Z,33.67
2022-12-01T07:48:52.830Z,27.73
2022-12-01T07:51:20.319Z,24.73
2022-12-01T07:53:49.791Z,24.73
2022-12-01T07:56:17.777Z,21.50
2022-12-01T07:58:44.743Z,23.88
2022-12-01T08:01:20.422Z,22.83
2022-12-01T08:03:55.129Z,28.50
2022-12-01T08:06:22.660Z,27.58
2022-12-01T08:08:50.244Z,21.98
2022-12-01T08:11:19.240Z,26.38
2022-12-01T08:13:46.006Z,21.70
2022-12-01T08:16:15.136Z,28.08
2022-12-01T08:18:42.856Z,23.70
2022-12-01T08:21:13.390Z,23.35
2022-12-01T08:23:41.503Z,23.63
2022-12-01T08:26:16.921Z,25.42
2022-12-01T08:28:43.869Z,23.23
2022-12-01T08:31:31.628Z,28.15
2022-12-01T08:33:59.100Z,26.23
2022-12-01T08:36:26.093Z,25.00
2022-12-01T08:38:54.558Z,28.17
2022-12-01T08:41:21.863Z,26.48
2022-12-01T08:44:03.999Z,22.15
2022-12-01T08:46:35.500Z,21.25
2022-12-01T08:49:04.175Z,22.48
2022-12-01T08:51:31.090Z,33.10
2022-12-01T08:53:59.358Z,26.67
2022-12-01T08:56:33.636Z,27.05
2022-12-01T08:59:00.887Z,27.48
2022-12-01T09:01:28.601Z,27.88
2022-12-01T09:04:07.522Z,25.45
2022-12-01T09:06:42.243Z,22.17
2022-12-01T09:09:11.039Z,24.75
2022-12-01T09:11:38.147Z,26.45
2022-12-01T09:14:04.954Z,71.85
2022-12-01T09:16:31.897Z,31.25
2022-12-01T09:18:58.627Z,25.77
2022-12-01T09:21:27.528Z,25.02
2022-12-01T09:23:54.415Z,28.23
2022-12-01T09:26:22.002Z,22.48
2022-12-01T09:28:52.971Z,27.08
2022-12-01T09:31:20.752Z,26.92
2022-12-01T09:33:47.589Z,23.60
2022-12-01T09:36:14.320Z,26.48
2022-12-01T09:38:41.033Z,26.38
2022-12-01T09:41:19.866Z,26.15
2022-12-01T09:43:54.004Z,23.17
2022-12-01T09:46:25.214Z,24.60
2022-12-01T09:48:53.905Z,26.48
2022-12-01T09:51:23.955Z,22.77
2022-12-01T09:53:53.752Z,28.58
2022-12-01T09:56:23.356Z,24.30
2022-12-01T09:58:55.474Z,24.58
2022-12-01T10:01:47.475Z,28.73
2022-12-01T10:07:25.880Z,27.77
2022-12-01T10:10:02.440Z,27.33
2022-12-01T10:12:34.932Z,25.08
2022-12-01T10:15:15.178Z,30.15
2022-12-01T10:18:20.976Z,23.30
2022-12-01T10:20:59.893Z,22.92
2022-12-01T10:23:36.944Z,22.27
2022-12-01T10:26:26.139Z,20.67
2022-12-01T10:29:17.142Z,29.60
2022-12-01T10:31:58.222Z,29.00
2022-12-01T10:34:32.973Z,28.90
2022-12-01T10:37:00.558Z,21.85
2022-12-01T10:39:38.630Z,21.23
2022-12-01T10:42:05.476Z,23.27
2022-12-01T10:44:33.811Z,22.75
2022-12-01T10:47:00.718Z,20.85
2022-12-01T10:49:39.601Z,22.15
2022-12-01T10:52:07.597Z,21.65
2022-12-01T10:54:39.942Z,23.50
2022-12-01T10:57:13.851Z,21.15
2022-12-01T10:59:55.510Z,17.50
2022-12-01T11:02:25.150Z,23.95
2022-12-01T11:04:59.104Z,22.08
2022-12-01T11:07:30.785Z,19.58
2022-12-01T11:12:29.807Z,21.02
2022-12-01T11:14:57.578Z,20.85
2022-12-01T11:17:40.561Z,21.95
2022-12-01T11:20:29.226Z,17.45
2022-12-01T11:23:20.904Z,20.17
2022-12-01T11:26:12.405Z,20.35
2022-12-01T11:28:49.968Z,18.35
2022-12-01T11:31:17.007Z,18.10
2022-12-01T11:33:53.635Z,23.92
2022-12-01T11:36:38.820Z,26.17
2022-12-01T11:39:05.560Z,19.17
2022-12-01T11:41:40.993Z,19.48
2022-12-01T11:44:43.109Z,19.25
2022-12-01T11:47:25.902Z,17.48
2022-12-01T11:49:58.798Z,22.40
2022-12-01T11:52:32.932Z,23.45
2022-12-01T11:55:11.860Z,24.67
2022-12-01T11:57:45.636Z,19.63
2022-12-01T12:00:18.356Z,26.90
2022-12-01T12:03:03.718Z,19.90
2022-12-01T12:05:37.518Z,19.30
2022-12-01T12:08:41.145Z,21.30
2022-12-01T12:11:21.360Z,18.13
2022-12-01T12:14:19.875Z,19.55
2022-12-01T12:17:12.624Z,19.95
2022-12-01T12:20:13.771Z,26.48
2022-12-01T12:22:50.873Z,21.05
2022-12-01T12:25:39.754Z,18.15
2022-12-01T12:28:19.585Z,21.98
2022-12-01T12:31:11.377Z,20.35
2022-12-01T12:34:00.584Z,21.15
2022-12-01T12:36:48.001Z,27.63
2022-12-01T12:39:37.740Z,18.67
2022-12-01T12:42:16.974Z,26.33
2022-12-01T12:45:06.501Z,22.88
2022-12-01T12:48:00.026Z,21.92
2022-12-01T12:50:50.354Z,24.75
2022-12-01T12:53:28.141Z,20.35
2022-12-01T12:55:59.761Z,20.92
2022-12-01T12:58:35.265Z,20.05
2022-12-01T13:01:20.908Z,21.30
2022-12-01T13:04:14.939Z,21.73
2022-12-01T13:06:41.574Z,18.27
2022-12-01T13:09:20.099Z,18.70
2022-12-01T13:12:08.121Z,19.88
2022-12-01T13:14:49.646Z,23.98
2022-12-01T13:17:31.801Z,20.45
2022-12-01T13:19:58.711Z,20.58
2022-12-01T13:22:32.752Z,21.25
2022-12-01T13:25:00.075Z,21.10
2022-12-01T13:27:33.041Z,24.58
2022-12-01T13:30:00.539Z,21.02
2022-12-01T13:32:42.402Z,24.00
2022-12-01T13:35:33.551Z,21.02
2022-12-01T13:38:22.869Z,26.55
2022-12-01T13:40:50.022Z,26.10
2022-12-01T13:43:23.421Z,26.95
2022-12-01T13:45:51.449Z,23.58
2022-12-01T13:48:56.845Z,23.50
2022-12-01T13:51:24.854Z,22.08
2022-12-01T13:54:04.439Z,22.20
2022-12-01T13:56:37.491Z,21.25
2022-12-01T13:59:40.196Z,23.17
2022-12-01T14:02:17.468Z,20.25
2022-12-01T14:04:44.302Z,22.55
2022-12-01T14:07:26.693Z,18.52
2022-12-01T14:09:58.400Z,21.30
2022-12-01T14:12:32.868Z,21.40
2022-12-01T14:15:04.197Z,20.33
2022-12-01T14:17:37.841Z,27.25
2022-12-01T14:20:19.191Z,22.02
2022-12-01T14:22:50.247Z,22.30
2022-12-01T14:25:20.226Z,19.17
2022-12-01T14:27:50.159Z,23.17
2022-12-01T14:30:42.024Z,23.75
2022-12-01T14:33:39.723Z,19.48
2022-12-01T14:36:30.953Z,20.88
2022-12-01T14:38:57.604Z,25.58
2022-12-01T14:41:28.603Z,29.95
2022-12-01T14:44:05.960Z,43.65
2022-12-01T14:46:43.100Z,31.15
2022-12-01T14:49:16.510Z,24.05
2022-12-01T14:51:46.087Z,25.65
2022-12-01T14:54:21.115Z,22.05
2022-12-01T14:56:52.524Z,22.33
2022-12-01T14:59:26.257Z,21.27
2022-12-01T15:01:57.408Z,21.55
2022-12-01T15:04:24.441Z,21.90
2022-12-01T15:06:57.486Z,24.60
2022-12-01T15:09:33.343Z,19.90
2022-12-01T15:12:03.528Z,25.02
2022-12-01T15:14:34.798Z,22.23
2022-12-01T15:17:05.006Z,24.80
2022-12-01T15:19:40.420Z,22.00
2022-12-01T15:22:10.029Z,20.90
2022-12-01T15:24:36.904Z,20.13
2022-12-01T15:27:04.414Z,20.25
2022-12-01T15:29:45.592Z,19.00
2022-12-01T15:32:16.831Z,20.35
2022-12-01T15:34:46.491Z,21.13
2022-12-01T15:37:18.943Z,23.35
2022-12-01T15:39:50.244Z,25.70
2022-12-01T15:42:33.569Z,21.45
2022-12-01T15:45:17.568Z,23.67
2022-12-01T15:47:49.603Z,22.55
2022-12-01T15:50:33.474Z,24.40
2022-12-01T15:53:22.194Z,21.70
2022-12-01T15:55:55.611Z,22.00
2022-12-01T15:58:29.634Z,24.25
2022-12-01T16:01:17.954Z,26.67
2022-12-01T16:04:03.281Z,21.90
2022-12-01T16:06:36.234Z,19.73
2022-12-01T16:09:07.522Z,22.40
2022-12-01T16:11:34.250Z,24.80
2022-12-01T16:14:21.477Z,25.75
2022-12-01T16:16:50.294Z,23.65
2022-12-01T16:19:17.155Z,24.77
2022-12-01T16:21:48.614Z,25.02
2022-12-01T16:24:19.568Z,22.38
2022-12-01T16:26:49.295Z,27.10
2022-12-01T16:29:21.504Z,24.65
2022-12-01T16:32:18.895Z,25.75
2022-12-01T16:34:46.349Z,21.98
2022-12-01T16:37:14.487Z,26.27
2022-12-01T16:39:41.408Z,26.00
2022-12-01T16:42:15.074Z,19.33
2022-12-01T16:44:44.630Z,17.42
2022-12-01T16:47:16.254Z,21.92
2022-12-01T16:49:43.119Z,23.27
2022-12-01T16:54:57.349Z,20.67
2022-12-01T16:57:24.115Z,20.73
2022-12-01T16:59:50.797Z,23.40
2022-12-01T17:02:18.290Z,20.60
2022-12-01T17:04:45.286Z,18.98
2022-12-01T17:07:12.003Z,20.10
2022-12-01T17:09:38.703Z,23.15
2022-12-01T17:12:05.831Z,21.10
2022-12-01T17:14:32.822Z,22.40
2022-12-01T17:16:59.672Z,21.45
2022-12-01T17:19:26.392Z,26.35
2022-12-01T17:21:53.223Z,23.13
2022-12-01T17:24:19.913Z,24.48
2022-12-01T17:26:46.886Z,21.02
2022-12-01T17:29:13.819Z,23.52
2022-12-01T17:31:40.711Z,21.73
2022-12-01T17:34:07.427Z,22.00
2022-12-01T17:36:34.654Z,20.98
2022-12-01T17:39:01.459Z,24.50
2022-12-01T17:41:32.439Z,21.38
2022-12-01T17:44:03.272Z,26.77
2022-12-01T17:46:30.423Z,24.30
2022-12-01T17:48:57.232Z,20.98
2022-12-01T17:51:24.056Z,20.58
2022-12-01T17:53:50.800Z,20.88
2022-12-01T17:56:17.699Z,24.48
2022-12-01T17:58:44.507Z,21.83
2022-12-01T18:01:15.860Z,19.83
2022-12-01T18:03:42.686Z,22.60
2022-12-01T18:06:11.202Z,24.17
2022-12-01T18:08:39.765Z,21.50
2022-12-01T18:11:09.929Z,20.80
2022-12-01T18:13:38.327Z,20.50
2022-12-01T18:16:14.653Z,22.83
2022-12-01T18:18:41.674Z,24.60
2022-12-01T18:21:10.456Z,22.38
2022-12-01T18:23:37.730Z,24.77
2022-12-01T18:26:15.140Z,22.48
2022-12-01T18:28:42.886Z,18.17
2022-12-01T18:31:13.142Z,23.40
2022-12-01T18:33:41.753Z,21.35
2022-12-01T18:36:16.951Z,21.45
2022-12-01T18:38:44.417Z,23.63
2022-12-01T18:41:11.166Z,22.42
2022-12-01T18:43:37.913Z,25.55
2022-12-01T18:46:06.374Z,24.27
2022-12-01T18:48:34.860Z,29.05
2022-12-01T18:51:06.667Z,25.77
2022-12-01T18:56:11.755Z,25.85
2022-12-01T18:58:39.753Z,27.75
2022-12-01T19:01:27.495Z,24.05
2022-12-01T19:03:56.370Z,23.45
2022-12-01T19:06:24.351Z,24.05
2022-12-01T19:08:52.520Z,23.20
2022-12-01T19:11:19.389Z,24.15
2022-12-01T19:13:47.188Z,21.65
2022-12-01T19:16:17.241Z,26.35
2022-12-01T19:18:45.274Z,37.47
2022-12-01T19:21:15.360Z,25.80
2022-12-01T19:23:44.631Z,28.83
2022-12-01T19:26:14.540Z,22.75
2022-12-01T19:28:42.644Z,28.52
2022-12-01T19:31:18.715Z,27.25
2022-12-01T19:33:46.553Z,23.70
2022-12-01T19:36:19.529Z,24.10
2022-12-01T19:38:47.025Z,28.98
2022-12-01T19:41:15.351Z,25.88
2022-12-01T19:43:42.710Z,25.10
2022-12-01T19:46:18.377Z,22.80
2022-12-01T19:48:46.167Z,22.05
2022-12-01T19:51:27.622Z,24.77
2022-12-01T19:53:55.593Z,25.83
2022-12-01T19:56:23.060Z,23.17
2022-12-01T19:58:50.687Z,20.30
2022-12-01T20:01:18.718Z,22.38
2022-12-01T20:03:50.116Z,25.65
2022-12-01T20:06:25.402Z,24.38
2022-12-01T20:08:52.856Z,20.23
2022-12-01T20:11:19.575Z,20.27
2022-12-01T20:13:48.642Z,17.60
2022-12-01T20:16:22.212Z,15.90
2022-12-01T20:18:49.926Z,16.08
2022-12-01T20:21:29.186Z,13.40
2022-12-01T20:23:58.767Z,16.50
2022-12-01T20:26:34.059Z,17.10
2022-12-01T20:29:07.779Z,16.10
2022-12-01T20:31:35.505Z,16.15
2022-12-01T20:34:06.875Z,16.63
2022-12-01T20:36:34.777Z,18.40
2022-12-01T20:39:01.889Z,18.85
2022-12-01T20:41:28.727Z,18.70
2022-12-01T20:43:55.683Z,20.33
2022-12-01T20:46:23.061Z,18.15
2022-12-01T20:48:50.002Z,19.90
2022-12-01T20:51:17.040Z,20.58
2022-12-01T20:53:54.657Z,17.33
2022-12-01T20:56:31.724Z,21.73
2022-12-01T20:58:59.862Z,20.80
2022-12-01T21:01:26.801Z,20.17
2022-12-01T21:03:54.053Z,19.55
2022-12-01T21:06:21.295Z,21.75
2022-12-01T21:08:50.208Z,22.45
2022-12-01T21:11:19.719Z,27.80
2022-12-01T21:13:46.994Z,21.85
2022-12-01T21:16:20.123Z,23.23
2022-12-01T21:19:01.662Z,22.90
2022-12-01T21:21:30.228Z,22.73
2022-12-01T21:24:11.725Z,28.80
2022-12-01T21:26:46.882Z,23.42
2022-12-01T21:29:46.723Z,22.30
2022-12-01T21:32:19.346Z,24.42
2022-12-01T21:34:47.668Z,25.70
2022-12-01T21:37:23.579Z,23.55
2022-12-01T21:39:51.992Z,24.35
2022-12-01T21:42:21.523Z,30.77
2022-12-01T21:44:48.951Z,28.30
2022-12-01T21:47:26.183Z,25.42
2022-12-01T21:49:55.981Z,27.15
2022-12-01T21:52:29.985Z,27.23
2022-12-01T21:55:16.234Z,27.77
2022-12-01T21:57:47.169Z,25.75
2022-12-01T22:00:31.900Z,27.23
2022-12-01T22:02:58.635Z,29.17
2022-12-01T22:05:42.899Z,30.85
2022-12-01T22:08:24.844Z,29.02
2022-12-01T22:11:20.824Z,25.80
2022-12-01T22:14:19.438Z,27.67
2022-12-01T22:17:00.929Z,30.27
2022-12-01T22:19:33.258Z,26.60
2022-12-01T22:22:01.302Z,37.22
2022-12-01T22:24:34.425Z,34.92
2022-12-01T22:27:32.205Z,29.13
2022-12-01T22:30:03.209Z,33.53
2022-12-01T22:33:00.722Z,31.45
2022-12-01T22:35:28.987Z,31.90
2022-12-01T22:38:06.789Z,30.27
2022-12-01T22:40:37.910Z,35.55
2022-12-01T22:43:17.082Z,34.17
2022-12-01T22:45:45.011Z,30.73
2022-12-01T22:48:28.073Z,30.65
2022-12-01T22:50:56.114Z,29.13
2022-12-01T22:53:30.991Z,29.05
2022-12-01T22:56:00.554Z,26.38
2022-12-01T22:58:31.996Z,36.38
2022-12-01T23:01:07.821Z,32.83
2022-12-01T23:03:34.613Z,32.03
2022-12-01T23:06:01.455Z,34.55
2022-12-01T23:08:28.174Z,29.98
2022-12-01T23:10:55.053Z,27.90
2022-12-01T23:13:24.429Z,27.65
2022-12-01T23:15:55.516Z,26.08
2022-12-01T23:18:28.884Z,30.30
2022-12-01T23:20:57.540Z,30.65
2022-12-01T23:23:32.391Z,25.30
2022-12-01T23:26:02.171Z,31.15
2022-12-01T23:28:30.569Z,20.92
2022-12-01T23:30:59.159Z,22.42
2022-12-01T23:33:32.376Z,26.15
2022-12-01T23:36:10.457Z,21.48
2022-12-01T23:38:43.503Z,23.27
2022-12-01T23:41:31.383Z,22.73
2022-12-01T23:44:00.986Z,22.67
2022-12-01T23:46:28.586Z,21.67
2022-12-01T23:49:01.401Z,20.45
2022-12-01T23:51:35.202Z,17.30
2022-12-01T23:54:10.159Z,16.77
2022-12-01T23:56:38.026Z,21.23
2022-12-01T23:59:09.651Z,17.95
